createdAt,value
2022-10-28T00:01:24.506Z,101555.83
2022-10-28T00:03:54.400Z,101556.11
2022-10-28T00:06:27.174Z,101554.95
2022-10-28T00:08:55.215Z,101556.95
2022-10-28T00:11:25.467Z,101553.34
2022-10-28T00:13:55.323Z,101550.92
2022-10-28T00:16:29.191Z,101550.55
2022-10-28T00:18:58.913Z,101544.45
2022-10-28T00:21:29.937Z,101545.76
2022-10-28T00:23:58.322Z,101546.20
2022-10-28T00:26:28.713Z,101545.54
2022-10-28T00:29:02.481Z,101544.40
2022-10-28T00:31:31.856Z,101542.03
2022-10-28T00:34:02.088Z,101542.13
2022-10-28T00:36:32.251Z,101545.11
2022-10-28T00:39:01.269Z,101538.84
2022-10-28T00:41:38.824Z,101543.07
2022-10-28T00:44:58.838Z,101540.33
2022-10-28T00:47:29.326Z,101541.84
2022-10-28T00:50:04.977Z,101541.80
2022-10-28T00:52:34.077Z,101535.27
2022-10-28T00:55:03.101Z,101530.17
2022-10-28T00:57:34.074Z,101530.73
2022-10-28T01:00:03.610Z,101530.75
2022-10-28T01:02:34.423Z,101529.19
2022-10-28T01:05:02.615Z,101526.96
2022-10-28T01:07:30.455Z,101529.09
2022-10-28T01:09:58.151Z,101526.47
2022-10-28T01:12:52.294Z,101534.93
2022-10-28T01:15:26.675Z,101535.23
2022-10-28T01:18:04.370Z,101532.24
2022-10-28T01:20:48.246Z,101529.39
2022-10-28T01:23:57.860Z,101531.88
2022-10-28T01:27:04.310Z,101528.39
2022-10-28T01:29:46.934Z,101525.01
2022-10-28T01:32:29.320Z,101527.38
2022-10-28T01:35:06.480Z,101524.98
2022-10-28T01:38:15.228Z,101524.02
2022-10-28T01:40:55.267Z,101518.59
2022-10-28T01:43:42.303Z,101516.84
2022-10-28T01:46:19.402Z,101519.50
2022-10-28T01:49:05.811Z,101523.74
2022-10-28T01:51:54.524Z,101532.14
2022-10-28T01:54:27.290Z,101529.27
2022-10-28T01:56:58.044Z,101525.88
2022-10-28T01:59:28.772Z,101526.42
2022-10-28T02:01:57.216Z,101526.07
2022-10-28T02:04:25.363Z,101524.09
2022-10-28T02:06:58.258Z,101522.42
2022-10-28T02:09:58.023Z,101524.16
2022-10-28T02:12:35.133Z,101516.70
2022-10-28T02:15:23.957Z,101516.90
2022-10-28T02:18:16.636Z,101522.55
2022-10-28T02:20:59.517Z,101524.80
2022-10-28T02:23:46.629Z,101522.09
2022-10-28T02:26:14.438Z,101518.51
2022-10-28T02:29:00.905Z,101517.73
2022-10-28T02:31:37.128Z,101517.66
2022-10-28T02:34:12.063Z,101515.34
2022-10-28T02:36:43.903Z,101515.27
2022-10-28T02:39:12.024Z,101518.61
2022-10-28T02:41:54.556Z,101516.36
2022-10-28T02:44:28.901Z,101515.48
2022-10-28T02:47:00.598Z,101519.73
2022-10-28T02:49:31.908Z,101519.65
2022-10-28T02:52:02.372Z,101515.65
2022-10-28T02:54:38.226Z,101516.55
2022-10-28T02:57:12.095Z,101516.40
2022-10-28T02:59:40.862Z,101519.42
2022-10-28T03:02:09.098Z,101519.16
2022-10-28T03:04:36.926Z,101518.25
2022-10-28T03:07:04.702Z,101517.94
2022-10-28T03:09:32.948Z,101517.98
2022-10-28T03:12:00.706Z,101517.02
2022-10-28T03:14:28.441Z,101516.05
2022-10-28T03:16:56.221Z,101515.23
2022-10-28T03:19:24.998Z,101514.05
2022-10-28T03:21:52.734Z,101515.13
2022-10-28T03:24:20.639Z,101521.14
2022-10-28T03:26:48.544Z,101523.89
2022-10-28T03:29:16.262Z,101524.55
2022-10-28T03:31:44.115Z,101530.11
2022-10-28T03:34:11.871Z,101527.40
2022-10-28T03:36:39.684Z,101531.75
2022-10-28T03:39:07.552Z,101532.13
2022-10-28T03:41:35.362Z,101532.27
2022-10-28T03:44:03.432Z,101532.22
2022-10-28T03:46:35.092Z,101532.84
2022-10-28T03:49:04.149Z,101530.07
2022-10-28T03:51:31.884Z,101529.20
2022-10-28T03:53:59.707Z,101531.02
2022-10-28T03:56:27.483Z,101533.40
2022-10-28T03:58:55.267Z,101532.83
2022-10-28T04:01:23.110Z,101533.55
2022-10-28T04:03:51.035Z,101539.36
2022-10-28T04:06:18.825Z,101543.75
2022-10-28T04:08:46.643Z,101547.98
2022-10-28T04:11:14.393Z,101547.64
2022-10-28T04:13:42.278Z,101548.95
2022-10-28T04:16:10.180Z,101551.09
2022-10-28T04:18:38.014Z,101548.71
2022-10-28T04:21:06.042Z,101552.12
2022-10-28T04:23:34.136Z,101550.17
2022-10-28T04:26:01.838Z,101553.63
2022-10-28T04:28:29.651Z,101551.20
2022-10-28T04:30:57.448Z,101553.91
2022-10-28T04:33:25.223Z,101551.98
2022-10-28T04:35:53.020Z,101549.94
2022-10-28T04:38:20.999Z,101545.53
2022-10-28T04:40:49.272Z,101545.11
2022-10-28T04:43:17.280Z,101539.31
2022-10-28T04:45:46.964Z,101539.35
2022-10-28T04:48:15.111Z,101537.10
2022-10-28T04:50:43.405Z,101535.17
2022-10-28T04:53:12.634Z,101537.06
2022-10-28T04:55:40.550Z,101539.64
2022-10-28T04:58:09.736Z,101538.11
2022-10-28T05:00:37.508Z,101540.70
2022-10-28T05:03:05.453Z,101542.48
2022-10-28T05:05:33.731Z,101544.41
2022-10-28T05:08:01.983Z,101545.83
2022-10-28T05:10:30.699Z,101550.02
2022-10-28T05:12:58.599Z,101552.71
2022-10-28T05:15:26.676Z,101558.91
2022-10-28T05:17:55.164Z,101561.61
2022-10-28T05:20:23.540Z,101561.29
2022-10-28T05:22:54.910Z,101561.29
2022-10-28T05:25:23.865Z,101562.52
2022-10-28T05:27:52.033Z,101565.59
2022-10-28T05:30:19.946Z,101567.45
2022-10-28T05:32:49.324Z,101570.97
2022-10-28T05:35:19.476Z,101570.75
2022-10-28T05:37:47.326Z,101573.73
2022-10-28T05:40:15.245Z,101577.54
2022-10-28T05:42:43.517Z,101577.05
2022-10-28T05:45:12.529Z,101578.23
2022-10-28T05:47:48.428Z,101577.57
2022-10-28T05:50:18.986Z,101580.56
2022-10-28T05:52:48.476Z,101583.92
2022-10-28T05:55:19.450Z,101589.06
2022-10-28T05:57:48.575Z,101589.75
2022-10-28T06:00:19.155Z,101589.12
2022-10-28T06:02:46.992Z,101591.34
2022-10-28T06:05:15.274Z,101591.13
2022-10-28T06:07:42.995Z,101590.72
2022-10-28T06:10:11.746Z,101595.90
2022-10-28T06:12:38.778Z,101598.43
2022-10-28T06:15:07.254Z,101592.69
2022-10-28T06:17:35.086Z,101589.23
2022-10-28T06:20:04.220Z,101589.23
2022-10-28T06:22:32.156Z,101591.80
2022-10-28T06:25:00.014Z,101589.54
2022-10-28T06:27:29.620Z,101587.53
2022-10-28T06:29:57.295Z,101585.85
2022-10-28T06:32:25.162Z,101583.81
2022-10-28T06:34:52.964Z,101582.32
2022-10-28T06:37:20.646Z,101578.59
2022-10-28T06:39:51.321Z,101578.23
2022-10-28T06:42:19.332Z,101574.84
2022-10-28T06:44:48.070Z,101576.27
2022-10-28T06:47:17.997Z,101576.81
2022-10-28T06:49:45.882Z,101578.46
2022-10-28T06:52:13.729Z,101577.85
2022-10-28T06:54:41.592Z,101583.80
2022-10-28T06:57:10.592Z,101585.50
2022-10-28T06:59:38.521Z,101582.98
2022-10-28T07:02:12.184Z,101577.84
2022-10-28T07:04:39.882Z,101580.02
2022-10-28T07:07:07.980Z,101581.80
2022-10-28T07:09:39.512Z,101586.16
2022-10-28T07:12:07.793Z,101584.21
2022-10-28T07:14:35.679Z,101579.64
2022-10-28T07:17:04.006Z,101577.83
2022-10-28T07:19:32.024Z,101575.20
2022-10-28T07:21:59.954Z,101570.78
2022-10-28T07:27:00.590Z,101568.67
2022-10-28T07:29:28.394Z,101568.48
2022-10-28T07:31:56.900Z,101571.21
2022-10-28T07:34:27.140Z,101571.65
2022-10-28T07:36:55.501Z,101574.32
2022-10-28T07:39:23.606Z,101578.52
2022-10-28T07:41:51.617Z,101579.72
2022-10-28T07:44:19.356Z,101575.71
2022-10-28T07:46:47.147Z,101575.88
2022-10-28T07:49:14.965Z,101576.59
2022-10-28T07:51:43.185Z,101573.59
2022-10-28T07:54:11.054Z,101572.92
2022-10-28T07:56:38.838Z,101575.31
2022-10-28T07:59:06.675Z,101574.10
2022-10-28T08:01:35.151Z,101573.63
2022-10-28T08:04:03.087Z,101578.31
2022-10-28T08:06:30.882Z,101573.31
2022-10-28T08:08:58.590Z,101574.04
2022-10-28T08:11:26.394Z,101573.52
2022-10-28T08:13:55.923Z,101574.14
2022-10-28T08:16:24.107Z,101575.52
2022-10-28T08:18:53.222Z,101574.08
2022-10-28T08:21:21.382Z,101575.45
2022-10-28T08:23:49.770Z,101576.98
2022-10-28T08:26:17.785Z,101576.89
2022-10-28T08:28:45.782Z,101579.72
2022-10-28T08:31:13.612Z,101583.64
2022-10-28T08:33:46.993Z,101583.00
2022-10-28T08:36:16.766Z,101581.88
2022-10-28T08:38:48.140Z,101580.73
2022-10-28T08:41:44.968Z,101581.88
2022-10-28T08:44:34.792Z,101581.57
2022-10-28T08:47:14.633Z,101576.29
2022-10-28T08:49:47.103Z,101578.98
2022-10-28T08:52:52.962Z,101581.86
2022-10-28T08:55:25.304Z,101575.73
2022-10-28T08:57:57.701Z,101570.60
2022-10-28T09:00:33.426Z,101568.81
2022-10-28T09:03:17.454Z,101572.54
2022-10-28T09:05:51.110Z,101575.55
2022-10-28T09:08:30.945Z,101574.18
2022-10-28T09:11:11.015Z,101570.38
2022-10-28T09:13:57.198Z,101572.34
2022-10-28T09:16:35.781Z,101563.31
2022-10-28T09:19:42.191Z,101566.27
2022-10-28T09:22:20.911Z,101567.06
2022-10-28T09:24:53.582Z,101567.23
2022-10-28T09:28:18.827Z,101565.83
2022-10-28T09:31:06.911Z,101563.50
2022-10-28T09:33:35.019Z,101564.65
2022-10-28T09:36:12.953Z,101560.18
2022-10-28T09:38:41.853Z,101561.80
2022-10-28T09:41:25.798Z,101562.95
2022-10-28T09:43:57.281Z,101562.45
2022-10-28T09:46:33.221Z,101561.66
2022-10-28T09:49:11.556Z,101558.50
2022-10-28T09:51:52.777Z,101559.65
2022-10-28T09:54:29.898Z,101559.90
2022-10-28T09:56:57.855Z,101557.33
2022-10-28T09:59:28.573Z,101559.36
2022-10-28T10:01:56.764Z,101559.89
2022-10-28T10:04:28.118Z,101557.98
2022-10-28T10:07:02.746Z,101555.45
2022-10-28T10:09:57.869Z,101550.92
2022-10-28T10:12:27.191Z,101548.05
2022-10-28T10:14:58.615Z,101552.67
2022-10-28T10:17:39.993Z,101548.36
2022-10-28T10:20:11.261Z,101548.02
2022-10-28T10:22:41.642Z,101548.31
2022-10-28T10:25:31.008Z,101549.87
2022-10-28T10:28:06.182Z,101551.38
2022-10-28T10:30:48.907Z,101547.78
2022-10-28T10:33:23.714Z,101553.10
2022-10-28T10:36:00.566Z,101554.50
2022-10-28T10:38:29.652Z,101545.01
2022-10-28T10:40:58.192Z,101542.83
2022-10-28T10:43:34.046Z,101542.35
2022-10-28T10:46:14.962Z,101538.30
2022-10-28T10:48:43.450Z,101542.38
2022-10-28T10:51:26.049Z,101536.67
2022-10-28T10:54:00.830Z,101534.89
2022-10-28T10:56:31.425Z,101528.23
2022-10-28T10:59:02.809Z,101527.36
2022-10-28T11:01:37.138Z,101524.45
2022-10-28T11:04:07.635Z,101526.38
2022-10-28T11:06:41.430Z,101519.56
2022-10-28T11:09:27.613Z,101521.77
2022-10-28T11:11:56.391Z,101518.36
2022-10-28T11:14:29.338Z,101519.05
2022-10-28T11:16:59.861Z,101516.39
2022-10-28T11:19:31.771Z,101515.47
2022-10-28T11:22:21.024Z,101511.45
2022-10-28T11:25:03.993Z,101509.44
2022-10-28T11:27:55.327Z,101510.13
2022-10-28T11:30:50.579Z,101510.64
2022-10-28T11:33:30.177Z,101505.11
2022-10-28T11:36:19.999Z,101504.86
2022-10-28T11:39:06.668Z,101508.41
2022-10-28T11:41:59.590Z,101509.58
2022-10-28T11:45:03.531Z,101511.41
2022-10-28T11:47:37.240Z,101508.11
2022-10-28T11:50:10.810Z,101507.73
2022-10-28T11:53:00.376Z,101504.46
2022-10-28T11:55:37.409Z,101496.50
2022-10-28T11:58:23.072Z,101492.71
2022-10-28T12:01:00.055Z,101489.86
2022-10-28T12:03:39.082Z,101487.61
2022-10-28T12:06:37.764Z,101486.61
2022-10-28T12:09:50.204Z,101484.63
2022-10-28T12:12:41.342Z,101485.34
2022-10-28T12:15:24.587Z,101481.05
2022-10-28T12:17:55.799Z,101481.05
2022-10-28T12:20:30.013Z,101480.88
2022-10-28T12:23:02.474Z,101476.20
2022-10-28T12:25:35.845Z,101477.48
2022-10-28T12:28:11.699Z,101477.88
2022-10-28T12:30:43.484Z,101476.73
2022-10-28T12:33:14.150Z,101482.98
2022-10-28T12:36:06.719Z,101475.31
2022-10-28T12:38:43.192Z,101485.84
2022-10-28T12:41:21.291Z,101481.27
2022-10-28T12:43:54.223Z,101479.35
2022-10-28T12:46:40.885Z,101477.27
2022-10-28T12:49:31.984Z,101479.88
2022-10-28T12:52:06.179Z,101474.83
2022-10-28T12:54:53.575Z,101473.23
2022-10-28T12:57:25.350Z,101474.54
2022-10-28T13:00:22.814Z,101472.46
2022-10-28T13:03:01.850Z,101472.77
2022-10-28T13:05:54.089Z,101472.16
2022-10-28T13:08:45.113Z,101469.55
2022-10-28T13:11:47.554Z,101468.23
2022-10-28T13:14:24.462Z,101471.73
2022-10-28T13:16:54.965Z,101472.87
2022-10-28T13:19:37.730Z,101468.70
2022-10-28T13:22:11.520Z,101476.09
2022-10-28T13:25:21.470Z,101474.30
2022-10-28T13:27:58.838Z,101472.91
2022-10-28T13:30:28.264Z,101475.56
2022-10-28T13:33:08.720Z,101474.63
2022-10-28T13:35:37.112Z,101477.95
2022-10-28T13:38:10.959Z,101472.27
2022-10-28T13:40:38.606Z,101471.20
2022-10-28T13:43:20.953Z,101470.67
2022-10-28T13:45:55.206Z,101467.24
2022-10-28T13:48:29.141Z,101468.38
2022-10-28T13:51:09.432Z,101464.77
2022-10-28T13:53:38.668Z,101466.23
2022-10-28T13:56:27.805Z,101466.57
2022-10-28T13:58:59.838Z,101464.61
2022-10-28T14:02:01.569Z,101465.73
2022-10-28T14:04:38.462Z,101465.09
2022-10-28T14:07:12.729Z,101464.21
2022-10-28T14:09:41.458Z,101465.80
2022-10-28T14:12:17.390Z,101466.16
2022-10-28T14:14:52.493Z,101465.30
2022-10-28T14:17:36.921Z,101468.61
2022-10-28T14:20:19.916Z,101466.98
2022-10-28T14:22:48.210Z,101459.40
2022-10-28T14:25:40.476Z,101460.39
2022-10-28T14:28:27.163Z,101458.60
2022-10-28T14:31:33.062Z,101458.11
2022-10-28T14:34:00.829Z,101457.08
2022-10-28T14:36:48.956Z,101461.73
2022-10-28T14:39:59.220Z,101459.58
2022-10-28T14:42:34.772Z,101458.02
2022-10-28T14:45:30.599Z,101460.66
2022-10-28T14:48:27.588Z,101458.23
2022-10-28T14:50:57.364Z,101451.16
2022-10-28T14:53:30.435Z,101447.43
2022-10-28T14:56:10.847Z,101442.34
2022-10-28T14:58:43.868Z,101442.02
2022-10-28T15:01:18.003Z,101443.13
2022-10-28T15:03:48.623Z,101442.61
2022-10-28T15:06:39.444Z,101443.27
2022-10-28T15:09:27.477Z,101436.61
2022-10-28T15:12:01.727Z,101433.82
2022-10-28T15:14:40.607Z,101435.54
2022-10-28T15:17:13.202Z,101439.38
2022-10-28T15:19:41.910Z,101439.02
2022-10-28T15:22:28.255Z,101438.23
2022-10-28T15:25:04.460Z,101446.36
2022-10-28T15:27:36.472Z,101447.93
2022-10-28T15:30:28.090Z,101445.19
2022-10-28T15:33:32.086Z,101449.21
2022-10-28T15:36:17.560Z,101445.02
2022-10-28T15:38:49.784Z,101450.32
2022-10-28T15:41:26.434Z,101451.33
2022-10-28T15:44:02.804Z,101456.61
2022-10-28T15:46:33.543Z,101456.27
2022-10-28T15:49:01.843Z,101458.77
2022-10-28T15:51:29.946Z,101453.73
2022-10-28T15:54:11.840Z,101452.89
2022-10-28T15:56:57.845Z,101448.30
2022-10-28T15:59:26.698Z,101454.54
2022-10-28T16:01:59.271Z,101449.44
2022-10-28T16:04:39.494Z,101444.42
2022-10-28T16:07:08.914Z,101443.87
2022-10-28T16:09:48.825Z,101445.60
2022-10-28T16:12:21.040Z,101447.45
2022-10-28T16:14:56.293Z,101446.35
2022-10-28T16:17:36.348Z,101443.46
2022-10-28T16:20:15.455Z,101437.44
2022-10-28T16:22:46.774Z,101433.59
2022-10-28T16:25:20.678Z,101434.13
2022-10-28T16:27:50.093Z,101438.13
2022-10-28T16:30:18.232Z,101437.95
2022-10-28T16:32:48.871Z,101432.19
2022-10-28T16:35:21.951Z,101437.62
2022-10-28T16:37:55.140Z,101438.30
2022-10-28T16:43:17.360Z,101463.19
2022-10-28T16:45:45.676Z,101471.48
2022-10-28T16:48:16.200Z,101470.95
2022-10-28T16:50:49.272Z,101467.44
2022-10-28T16:53:18.072Z,101471.52
2022-10-28T16:55:46.295Z,101474.42
2022-10-28T16:58:14.160Z,101469.17
2022-10-28T17:00:43.008Z,101473.03
2022-10-28T17:03:17.053Z,101478.30
2022-10-28T17:05:45.318Z,101479.02
2022-10-28T17:08:13.611Z,101473.66
2022-10-28T17:10:42.708Z,101470.95
2022-10-28T17:13:14.886Z,101472.23
2022-10-28T17:15:43.540Z,101473.59
2022-10-28T17:18:14.979Z,101473.97
2022-10-28T17:20:42.800Z,101475.23
2022-10-28T17:23:10.673Z,101474.23
2022-10-28T17:25:38.484Z,101477.91
2022-10-28T17:28:06.410Z,101476.07
2022-10-28T17:30:34.400Z,101482.85
2022-10-28T17:33:02.553Z,101479.72
2022-10-28T17:35:30.351Z,101482.75
2022-10-28T17:37:58.664Z,101480.95
2022-10-28T17:40:26.502Z,101478.66
2022-10-28T17:42:58.279Z,101483.21
2022-10-28T17:45:26.305Z,101483.55
2022-10-28T17:47:54.196Z,101485.04
2022-10-28T17:50:22.078Z,101486.20
2022-10-28T17:52:49.957Z,101482.51
2022-10-28T17:55:17.681Z,101483.24
2022-10-28T17:57:45.646Z,101486.48
2022-10-28T18:00:14.159Z,101489.92
2022-10-28T18:02:42.073Z,101490.29
2022-10-28T18:05:10.125Z,101491.56
2022-10-28T18:07:37.962Z,101489.80
2022-10-28T18:10:06.516Z,101488.23
2022-10-28T18:12:34.249Z,101489.09
2022-10-28T18:15:02.106Z,101486.45
2022-10-28T18:17:29.903Z,101483.73
2022-10-28T18:20:01.511Z,101481.62
2022-10-28T18:22:29.283Z,101481.14
2022-10-28T18:24:57.077Z,101479.29
2022-10-28T18:27:24.882Z,101483.91
2022-10-28T18:29:52.737Z,101483.80
2022-10-28T18:32:20.646Z,101488.64
2022-10-28T18:34:48.578Z,101486.84
2022-10-28T18:37:16.357Z,101488.34
2022-10-28T18:39:44.374Z,101486.85
2022-10-28T18:42:13.092Z,101484.16
2022-10-28T18:44:41.820Z,101483.23
2022-10-28T18:47:09.505Z,101478.10
2022-10-28T18:49:37.321Z,101475.42
2022-10-28T18:52:05.082Z,101473.27
2022-10-28T18:54:34.189Z,101469.74
2022-10-28T18:57:02.033Z,101464.16
2022-10-28T18:59:29.758Z,101459.67
2022-10-28T19:01:57.896Z,101463.63
2022-10-28T19:04:25.798Z,101467.76
2022-10-28T19:06:53.731Z,101470.85
2022-10-28T19:09:21.620Z,101468.77
2022-10-28T19:11:49.340Z,101474.01
2022-10-28T19:14:17.127Z,101476.21
2022-10-28T19:16:44.989Z,101479.08
2022-10-28T19:19:12.723Z,101482.64
2022-10-28T19:21:40.543Z,101487.38
2022-10-28T19:24:08.645Z,101491.76
2022-10-28T19:26:36.566Z,101489.84
2022-10-28T19:29:04.740Z,101491.05
2022-10-28T19:31:36.117Z,101492.48
2022-10-28T19:34:03.871Z,101492.10
2022-10-28T19:36:31.671Z,101493.33
2022-10-28T19:38:59.642Z,101498.09
2022-10-28T19:41:29.226Z,101499.11
2022-10-28T19:43:59.379Z,101497.09
2022-10-28T19:46:30.961Z,101504.64
2022-10-28T19:49:00.648Z,101501.80
2022-10-28T19:51:31.459Z,101500.99
2022-10-28T19:54:01.314Z,101502.23
2022-10-28T19:56:31.671Z,101498.81
2022-10-28T19:59:02.275Z,101496.69
2022-10-28T20:01:35.885Z,101497.61
2022-10-28T20:04:04.462Z,101501.09
2022-10-28T20:06:35.049Z,101504.34
2022-10-28T20:09:03.590Z,101507.15
2022-10-28T20:11:33.969Z,101511.20
2022-10-28T20:14:04.525Z,101512.63
2022-10-28T20:16:33.250Z,101515.19
2022-10-28T20:19:01.036Z,101515.91
2022-10-28T20:21:30.940Z,101513.37
2022-10-28T20:23:58.887Z,101516.03
2022-10-28T20:26:32.014Z,101516.01
2022-10-28T20:29:02.915Z,101515.55
2022-10-28T20:31:32.203Z,101511.60
2022-10-28T20:34:03.883Z,101505.10
2022-10-28T20:36:40.147Z,101506.03
2022-10-28T20:39:12.997Z,101503.89
2022-10-28T20:41:41.944Z,101505.77
2022-10-28T20:44:09.932Z,101501.40
2022-10-28T20:46:38.727Z,101500.27
2022-10-28T20:49:08.711Z,101498.08
2022-10-28T20:51:37.052Z,101498.94
2022-10-28T20:54:05.150Z,101500.67
2022-10-28T20:56:36.246Z,101503.66
2022-10-28T20:59:05.009Z,101508.96
2022-10-28T21:01:41.022Z,101509.48
2022-10-28T21:04:10.852Z,101509.98
2022-10-28T21:06:40.005Z,101509.07
2022-10-28T21:09:08.886Z,101510.82
2022-10-28T21:11:36.709Z,101517.19
2022-10-28T21:14:04.404Z,101518.27
2022-10-28T21:16:33.330Z,101520.50
2022-10-28T21:19:01.325Z,101520.27
2022-10-28T21:21:30.414Z,101522.82
2022-10-28T21:24:00.719Z,101522.09
2022-10-28T21:26:28.698Z,101518.70
2022-10-28T21:28:56.594Z,101515.59
2022-10-28T21:31:25.079Z,101511.69
2022-10-28T21:33:53.476Z,101502.02
2022-10-28T21:36:22.312Z,101502.66
2022-10-28T21:38:55.429Z,101504.05
2022-10-28T21:41:24.300Z,101499.71
2022-10-28T21:43:54.335Z,101492.29
2022-10-28T21:46:23.618Z,101493.08
2022-10-28T21:48:52.734Z,101497.28
2022-10-28T21:51:20.652Z,101500.15
2022-10-28T21:53:48.400Z,101499.50
2022-10-28T21:56:19.321Z,101499.46
2022-10-28T21:58:49.371Z,101497.34
2022-10-28T22:01:22.372Z,101495.98
2022-10-28T22:03:51.903Z,101493.63
2022-10-28T22:06:19.704Z,101492.55
2022-10-28T22:08:47.660Z,101490.38
2022-10-28T22:11:18.019Z,101486.14
2022-10-28T22:13:46.178Z,101482.89
2022-10-28T22:16:16.186Z,101480.23
2022-10-28T22:18:44.597Z,101480.05
2022-10-28T22:21:15.447Z,101479.66
2022-10-28T22:23:43.707Z,101478.80
2022-10-28T22:26:14.789Z,101477.59
2022-10-28T22:28:43.033Z,101478.94
2022-10-28T22:31:15.028Z,101478.57
2022-10-28T22:33:43.419Z,101474.22
2022-10-28T22:36:13.733Z,101470.75
2022-10-28T22:38:42.212Z,101475.36
2022-10-28T22:41:21.801Z,101472.27
2022-10-28T22:43:54.668Z,101472.81
2022-10-28T22:46:24.361Z,101472.41
2022-10-28T22:48:53.231Z,101474.66
2022-10-28T22:51:21.682Z,101478.43
2022-10-28T22:53:50.209Z,101477.08
2022-10-28T22:56:23.878Z,101472.23
2022-10-28T22:59:00.303Z,101475.11
2022-10-28T23:01:29.106Z,101472.55
2022-10-28T23:03:57.328Z,101473.00
2022-10-28T23:06:26.632Z,101474.83
2022-10-28T23:08:54.871Z,101474.88
2022-10-28T23:11:23.129Z,101472.83
2022-10-28T23:13:53.194Z,101471.21
2022-10-28T23:16:22.194Z,101475.80
2022-10-28T23:18:52.709Z,101464.55
2022-10-28T23:21:23.073Z,101464.77
2022-10-28T23:23:55.722Z,101462.65
2022-10-28T23:26:24.312Z,101459.78
2022-10-28T23:28:53.938Z,101459.16
2022-10-28T23:31:22.802Z,101458.67
2022-10-28T23:33:50.907Z,101454.98
2022-10-28T23:36:18.715Z,101453.20
2022-10-28T23:38:46.632Z,101451.52
2022-10-28T23:41:18.450Z,101451.71
2022-10-28T23:43:48.766Z,101449.59
2022-10-28T23:46:17.356Z,101449.20
2022-10-28T23:48:45.297Z,101448.87
2022-10-28T23:51:13.063Z,101446.69
2022-10-28T23:53:40.886Z,101447.70
2022-10-28T23:56:08.942Z,101446.08
2022-10-28T23:58:36.745Z,101447.13
